Time;durP1;ratioP1;P1;durP2;ratioP2;P2;SDS_P1;SDS_P2;PMS_P1;PMS_P2;Temp;Humidity;BMP_temperature;BMP_pressure;BME280_temperature;BME280_humidity;BME280_pressure;Samples;Min_cycle;Max_cycle;Signal;HPM_P1;HPM_P2
2021/08/07 00:00:01;;;;;;;5.25;4.70;;;;;;;;;;5054635;28;20486;-81
2021/08/07 00:02:29;;;;;;;6.60;4.43;;;;;;;;;;5054506;28;20143;-81
2021/08/07 00:04:55;;;;;;;8.00;5.30;;;;;;;;;;5054482;28;20028;-81
2021/08/07 00:07:21;;;;;;;5.10;4.65;;;;;;;;;;5054048;28;20540;-81
2021/08/07 00:09:47;;;;;;;17.08;6.28;;;;;;;;;;5054520;28;20109;-81
2021/08/07 00:12:13;;;;;;;16.30;5.82;;;;;;;;;;5054223;28;20075;-81
2021/08/07 00:14:39;;;;;;;5.68;4.57;;;;;;;;;;5054218;28;20115;-81
2021/08/07 00:17:05;;;;;;;5.65;5.10;;;;;;;;;;5054158;28;20025;-82
2021/08/07 00:19:31;;;;;;;5.47;4.50;;;;;;;;;;5054303;28;20028;-82
2021/08/07 00:21:57;;;;;;;7.97;5.03;;;;;;;;;;5053795;28;20372;-82
2021/08/07 00:24:23;;;;;;;6.35;4.50;;;;;;;;;;5054055;28;20028;-82
2021/08/07 00:26:49;;;;;;;5.88;5.30;;;;;;;;;;5053837;28;20409;-81
2021/08/07 00:29:15;;;;;;;6.13;4.90;;;;;;;;;;5054049;28;20426;-82
2021/08/07 00:31:42;;;;;;;7.65;5.10;;;;;;;;;;5054031;28;20028;-81
2021/08/07 00:34:08;;;;;;;8.85;5.45;;;;;;;;;;5053104;28;20029;-82
2021/08/07 00:36:34;;;;;;;5.35;4.85;;;;;;;;;;5053442;28;20475;-82
2021/08/07 00:39:00;;;;;;;14.95;5.28;;;;;;;;;;5054016;28;20475;-81
2021/08/07 00:41:27;;;;;;;6.90;4.65;;;;;;;;;;5053698;28;20090;-82
2021/08/07 00:43:53;;;;;;;5.53;4.45;;;;;;;;;;5053832;28;20060;-81
2021/08/07 00:46:19;;;;;;;10.85;5.22;;;;;;;;;;5053526;28;20497;-82
2021/08/07 00:48:45;;;;;;;6.15;4.80;;;;;;;;;;5053779;28;20467;-82
2021/08/07 00:51:11;;;;;;;6.32;5.53;;;;;;;;;;5053209;28;20056;-82
2021/08/07 00:53:37;;;;;;;5.13;4.53;;;;;;;;;;5053722;28;20060;-82
2021/08/07 00:56:03;;;;;;;5.97;5.38;;;;;;;;;;5053699;28;20467;-82
2021/08/07 00:58:30;;;;;;;5.50;4.82;;;;;;;;;;5053376;28;20383;-81
2021/08/07 01:00:56;;;;;;;7.95;5.60;;;;;;;;;;5053352;28;20055;-82
2021/08/07 01:03:45;;;;;;;6.18;5.38;;;;;;;;;;5053552;28;20028;-82
2021/08/07 01:06:17;;;;;;;5.82;5.25;;;;;;;;;;5038650;28;20379;-82
2021/08/07 01:08:45;;;;;;;5.70;5.20;;;;;;;;;;5053494;28;20032;-81
2021/08/07 01:11:15;;;;;;;6.70;5.25;;;;;;;;;;5053347;28;20028;-81
2021/08/07 01:13:44;;;;;;;6.50;5.03;;;;;;;;;;5052964;28;20470;-81
2021/08/07 01:16:17;;;;;;;6.55;4.90;;;;;;;;;;5052860;28;20032;-82
2021/08/07 01:18:43;;;;;;;5.53;4.85;;;;;;;;;;5053453;28;20025;-81
2021/08/07 01:21:12;;;;;;;6.25;5.20;;;;;;;;;;5052958;28;20509;-82
2021/08/07 01:23:57;;;;;;;4.82;4.32;;;;;;;;;;5053014;28;20017;-82
2021/08/07 01:26:29;;;;;;;11.35;5.13;;;;;;;;;;5038239;28;20035;-81
2021/08/07 01:28:55;;;;;;;8.70;4.28;;;;;;;;;;5052662;28;20478;-82
2021/08/07 01:31:21;;;;;;;5.90;5.18;;;;;;;;;;5053377;28;20503;-83
2021/08/07 01:33:47;;;;;;;7.22;5.25;;;;;;;;;;5053277;28;20067;-84
2021/08/07 01:36:14;;;;;;;6.88;4.75;;;;;;;;;;5052613;28;20108;-82
2021/08/07 01:38:40;;;;;;;6.60;4.88;;;;;;;;;;5052853;28;20025;-82
2021/08/07 01:41:13;;;;;;;5.35;4.85;;;;;;;;;;5052873;28;20074;-83
2021/08/07 01:43:39;;;;;;;6.65;5.97;;;;;;;;;;5053137;28;20033;-81
2021/08/07 01:46:05;;;;;;;5.70;5.20;;;;;;;;;;5052987;28;20051;-82
2021/08/07 01:48:51;;;;;;;6.13;5.57;;;;;;;;;;5052972;28;20029;-81
2021/08/07 01:51:18;;;;;;;5.93;5.35;;;;;;;;;;5038209;28;20066;-81
2021/08/07 01:53:44;;;;;;;28.35;6.50;;;;;;;;;;5052650;28;20053;-81
2021/08/07 01:56:12;;;;;;;6.28;5.57;;;;;;;;;;5052922;28;20063;-83
2021/08/07 01:58:40;;;;;;;6.28;4.60;;;;;;;;;;5052616;28;20029;-80
2021/08/07 02:01:06;;;;;;;6.78;5.20;;;;;;;;;;5052777;28;20029;-80
2021/08/07 02:03:33;;;;;;;14.27;5.82;;;;;;;;;;5052973;28;20467;-80
2021/08/07 02:05:59;;;;;;;5.85;5.25;;;;;;;;;;5052548;28;20032;-81
2021/08/07 02:08:25;;;;;;;5.80;5.20;;;;;;;;;;5052100;28;20029;-81
2021/08/07 02:10:51;;;;;;;6.22;5.72;;;;;;;;;;5052905;28;20112;-80
2021/08/07 02:13:17;;;;;;;6.30;5.70;;;;;;;;;;5052589;28;20560;-81
2021/08/07 02:15:45;;;;;;;9.13;5.53;;;;;;;;;;5052558;28;20052;-80
2021/08/07 02:18:12;;;;;;;5.75;4.88;;;;;;;;;;5052299;28;20025;-82
2021/08/07 02:20:38;;;;;;;6.60;5.32;;;;;;;;;;5052349;28;20029;-82
2021/08/07 02:23:04;;;;;;;6.75;5.47;;;;;;;;;;5052253;28;20017;-81
2021/08/07 02:25:30;;;;;;;6.13;4.93;;;;;;;;;;5052640;28;20049;-81
2021/08/07 02:27:56;;;;;;;5.40;4.78;;;;;;;;;;5052298;28;20041;-81
2021/08/07 02:30:22;;;;;;;5.00;4.47;;;;;;;;;;5052222;28;20471;-81
2021/08/07 02:32:48;;;;;;;5.05;4.65;;;;;;;;;;5052319;28;20025;-81
2021/08/07 02:35:14;;;;;;;6.20;5.07;;;;;;;;;;5052284;28;20021;-81
2021/08/07 02:37:40;;;;;;;5.50;5.00;;;;;;;;;;5052087;28;20032;-82
2021/08/07 02:40:07;;;;;;;6.20;5.60;;;;;;;;;;5052273;28;20074;-81
2021/08/07 02:42:34;;;;;;;10.13;5.35;;;;;;;;;;5052083;28;20159;-81
2021/08/07 02:45:00;;;;;;;6.80;4.38;;;;;;;;;;5052296;28;20032;-81
2021/08/07 02:47:26;;;;;;;7.40;6.10;;;;;;;;;;5052126;28;20025;-82
2021/08/07 02:49:52;;;;;;;5.85;4.90;;;;;;;;;;5052106;28;20029;-81
2021/08/07 02:52:18;;;;;;;8.63;5.10;;;;;;;;;;5051934;28;20029;-81
2021/08/07 02:54:44;;;;;;;5.93;5.38;;;;;;;;;;5052671;28;20068;-81
2021/08/07 02:57:10;;;;;;;6.03;5.35;;;;;;;;;;5052062;28;20025;-81
2021/08/07 02:59:37;;;;;;;5.30;4.80;;;;;;;;;;5055763;28;20128;-81
2021/08/07 03:02:03;;;;;;;6.10;5.13;;;;;;;;;;5055795;28;20395;-81
2021/08/07 03:04:29;;;;;;;5.57;4.95;;;;;;;;;;5055681;28;20108;-81
2021/08/07 03:06:55;;;;;;;7.78;5.35;;;;;;;;;;5055376;28;20021;-81
2021/08/07 03:09:21;;;;;;;5.78;5.28;;;;;;;;;;5055726;28;20039;-80
2021/08/07 03:11:47;;;;;;;5.68;5.18;;;;;;;;;;5055668;28;20017;-80
2021/08/07 03:14:13;;;;;;;7.05;4.85;;;;;;;;;;5055302;28;20406;-81
2021/08/07 03:16:40;;;;;;;5.38;4.88;;;;;;;;;;5055545;28;20025;-81
2021/08/07 03:19:06;;;;;;;6.60;5.07;;;;;;;;;;5055515;28;20029;-84
2021/08/07 03:21:32;;;;;;;7.15;5.85;;;;;;;;;;5055383;28;20021;-83
2021/08/07 03:23:58;;;;;;;9.75;6.43;;;;;;;;;;5056172;28;20029;-80
2021/08/07 03:26:24;;;;;;;12.48;7.53;;;;;;;;;;5056241;28;20044;-80
2021/08/07 03:28:50;;;;;;;15.98;7.93;;;;;;;;;;5056041;28;20037;-84
2021/08/07 03:31:16;;;;;;;12.75;8.32;;;;;;;;;;5056541;28;20029;-81
2021/08/07 03:33:43;;;;;;;12.82;7.38;;;;;;;;;;5055839;28;20070;-81
2021/08/07 03:36:09;;;;;;;18.33;9.95;;;;;;;;;;5055570;28;20029;-81
2021/08/07 03:38:35;;;;;;;21.05;10.02;;;;;;;;;;5055395;28;20021;-81
2021/08/07 03:41:02;;;;;;;21.58;10.07;;;;;;;;;;5056340;28;20036;-81
2021/08/07 03:43:28;;;;;;;16.08;8.43;;;;;;;;;;5056230;28;20029;-81
2021/08/07 03:45:54;;;;;;;15.38;8.98;;;;;;;;;;5055705;28;20021;-81
2021/08/07 03:48:20;;;;;;;16.05;8.90;;;;;;;;;;5054811;28;20021;-84
2021/08/07 03:50:46;;;;;;;11.35;7.78;;;;;;;;;;5055893;28;20127;-83
2021/08/07 03:53:12;;;;;;;15.63;8.95;;;;;;;;;;5056361;28;20071;-83
2021/08/07 03:55:39;;;;;;;18.35;9.13;;;;;;;;;;5055729;28;20025;-82
2021/08/07 03:58:05;;;;;;;13.50;8.18;;;;;;;;;;5055582;28;20025;-82
2021/08/07 04:00:31;;;;;;;11.23;7.72;;;;;;;;;;5055488;28;20060;-81
2021/08/07 04:02:57;;;;;;;11.95;8.20;;;;;;;;;;5055201;28;20051;-81
2021/08/07 04:05:23;;;;;;;14.82;7.97;;;;;;;;;;5055234;28;20021;-81
2021/08/07 04:07:49;;;;;;;11.25;7.47;;;;;;;;;;5055326;28;20079;-81
2021/08/07 04:10:16;;;;;;;12.20;7.28;;;;;;;;;;5054191;28;20028;-82
2021/08/07 04:12:42;;;;;;;15.43;7.93;;;;;;;;;;5055656;28;20525;-82
2021/08/07 04:15:08;;;;;;;13.07;7.43;;;;;;;;;;5055176;28;20392;-81
2021/08/07 04:17:36;;;;;;;15.73;6.88;;;;;;;;;;5055119;28;20071;-81
2021/08/07 04:20:02;;;;;;;11.57;7.43;;;;;;;;;;5055022;28;20421;-81
2021/08/07 04:22:28;;;;;;;12.32;6.47;;;;;;;;;;5054783;28;20025;-81
2021/08/07 04:24:54;;;;;;;9.43;6.97;;;;;;;;;;5055214;28;20063;-80
2021/08/07 04:27:20;;;;;;;13.40;7.45;;;;;;;;;;5055455;28;20085;-80
2021/08/07 04:29:48;;;;;;;14.57;6.93;;;;;;;;;;5054869;28;20025;-81
2021/08/07 04:32:14;;;;;;;12.05;7.15;;;;;;;;;;5054910;28;20021;-82
2021/08/07 04:34:40;;;;;;;10.75;6.85;;;;;;;;;;5054834;28;20178;-81
2021/08/07 04:37:06;;;;;;;8.75;6.78;;;;;;;;;;5055472;28;20021;-80
2021/08/07 04:39:32;;;;;;;10.05;7.40;;;;;;;;;;5054555;28;20379;-83
2021/08/07 04:41:58;;;;;;;10.43;6.95;;;;;;;;;;5054545;28;20372;-79
2021/08/07 04:44:24;;;;;;;10.10;6.65;;;;;;;;;;5054751;28;20083;-82
2021/08/07 04:46:50;;;;;;;9.73;6.35;;;;;;;;;;5054557;28;20017;-81
2021/08/07 04:49:16;;;;;;;10.55;7.43;;;;;;;;;;5054568;28;20072;-82
2021/08/07 04:51:42;;;;;;;8.48;6.78;;;;;;;;;;5054471;28;20017;-81
2021/08/07 04:54:10;;;;;;;8.80;6.38;;;;;;;;;;5054633;28;20056;-79
2021/08/07 04:56:36;;;;;;;9.23;6.65;;;;;;;;;;5054427;28;20025;-82
2021/08/07 04:59:02;;;;;;;10.13;7.18;;;;;;;;;;5054706;28;20039;-81
2021/08/07 05:01:28;;;;;;;10.18;6.35;;;;;;;;;;5054490;28;20071;-82
2021/08/07 05:03:55;;;;;;;9.13;5.82;;;;;;;;;;5054391;28;20052;-81
2021/08/07 05:06:21;;;;;;;10.48;6.85;;;;;;;;;;5054088;28;20083;-81
2021/08/07 05:08:47;;;;;;;6.95;6.20;;;;;;;;;;5054303;28;20399;-82
2021/08/07 05:11:13;;;;;;;10.25;6.50;;;;;;;;;;5054034;28;20517;-81
2021/08/07 05:13:39;;;;;;;6.70;5.57;;;;;;;;;;5054289;28;20024;-81
2021/08/07 05:16:05;;;;;;;9.55;5.43;;;;;;;;;;5054295;28;20043;-84
2021/08/07 05:18:31;;;;;;;5.95;5.32;;;;;;;;;;5054208;28;20025;-81
2021/08/07 05:20:57;;;;;;;7.80;6.13;;;;;;;;;;5053674;28;20029;-81
2021/08/07 05:23:23;;;;;;;13.98;5.95;;;;;;;;;;5054758;28;20116;-82
2021/08/07 05:25:49;;;;;;;7.47;5.63;;;;;;;;;;5053985;28;20025;-82
2021/08/07 05:28:15;;;;;;;6.25;5.65;;;;;;;;;;5053884;28;20033;-81
2021/08/07 05:30:41;;;;;;;8.45;6.00;;;;;;;;;;5053809;28;20087;-81
2021/08/07 05:33:07;;;;;;;7.65;5.95;;;;;;;;;;5053992;28;20025;-80
2021/08/07 05:35:33;;;;;;;10.00;6.50;;;;;;;;;;5053938;28;20047;-81
2021/08/07 05:37:59;;;;;;;6.22;5.63;;;;;;;;;;5053854;28;20025;-82
2021/08/07 05:40:25;;;;;;;6.75;5.80;;;;;;;;;;5053983;28;20029;-82
2021/08/07 05:42:51;;;;;;;5.85;5.22;;;;;;;;;;5054127;28;20021;-82
2021/08/07 05:45:17;;;;;;;6.22;5.63;;;;;;;;;;5053824;28;20467;-82
2021/08/07 05:47:43;;;;;;;11.43;5.75;;;;;;;;;;5053825;28;20024;-80
2021/08/07 05:50:09;;;;;;;7.63;6.28;;;;;;;;;;5053266;28;20127;-81
2021/08/07 05:52:36;;;;;;;7.65;5.90;;;;;;;;;;5054107;28;20017;-80
2021/08/07 05:55:02;;;;;;;12.88;6.47;;;;;;;;;;5053526;28;20056;-80
2021/08/07 05:57:28;;;;;;;10.15;6.97;;;;;;;;;;5055530;28;20025;-77
2021/08/07 05:59:54;;;;;;;6.95;5.53;;;;;;;;;;5055439;28;20035;-79
2021/08/07 06:02:20;;;;;;;10.32;6.50;;;;;;;;;;5055745;28;20021;-76
2021/08/07 06:04:46;;;;;;;9.00;6.22;;;;;;;;;;5054409;28;20032;-77
2021/08/07 06:07:12;;;;;;;6.82;6.18;;;;;;;;;;5054742;28;20029;-80
2021/08/07 06:09:38;;;;;;;10.75;5.50;;;;;;;;;;5056601;28;20033;-81
2021/08/07 06:12:04;;;;;;;7.13;5.88;;;;;;;;;;5055966;28;20056;-79
2021/08/07 06:14:30;;;;;;;5.28;4.75;;;;;;;;;;5054150;28;20467;-79
2021/08/07 06:16:56;;;;;;;9.07;5.47;;;;;;;;;;5053926;28;20455;-79
2021/08/07 06:19:22;;;;;;;6.50;5.85;;;;;;;;;;5053861;28;20484;-80
2021/08/07 06:21:49;;;;;;;7.22;5.20;;;;;;;;;;5054550;28;20025;-79
2021/08/07 06:24:15;;;;;;;5.65;5.15;;;;;;;;;;5054552;28;20031;-78
2021/08/07 06:26:43;;;;;;;5.97;5.38;;;;;;;;;;5053574;28;20024;-79
2021/08/07 06:29:09;;;;;;;5.65;4.93;;;;;;;;;;5053915;28;20171;-79
2021/08/07 06:31:35;;;;;;;10.35;5.50;;;;;;;;;;5053162;28;20017;-79
2021/08/07 06:34:02;;;;;;;10.25;4.88;;;;;;;;;;5056025;28;20035;-79
2021/08/07 06:36:28;;;;;;;5.78;4.68;;;;;;;;;;5057645;28;20036;-79
2021/08/07 06:38:54;;;;;;;5.28;4.65;;;;;;;;;;5056904;28;20053;-79
2021/08/07 06:41:20;;;;;;;6.03;4.95;;;;;;;;;;5056866;28;20348;-79
2021/08/07 06:43:46;;;;;;;6.95;4.53;;;;;;;;;;5057211;28;20374;-79
2021/08/07 06:46:12;;;;;;;14.45;5.07;;;;;;;;;;5056664;28;20087;-79
2021/08/07 06:48:38;;;;;;;5.85;3.05;;;;;;;;;;5057020;28;20090;-79
2021/08/07 06:51:05;;;;;;;4.20;3.80;;;;;;;;;;5056841;28;20044;-79
2021/08/07 06:53:31;;;;;;;8.27;4.20;;;;;;;;;;5057054;28;20051;-78
2021/08/07 06:55:57;;;;;;;4.57;3.80;;;;;;;;;;5057452;28;20332;-77
2021/08/07 06:58:24;;;;;;;3.75;3.38;;;;;;;;;;5056892;28;20021;-79
2021/08/07 07:00:50;;;;;;;5.97;3.25;;;;;;;;;;5056595;28;20131;-79
2021/08/07 07:03:16;;;;;;;4.40;3.97;;;;;;;;;;5056516;28;20029;-79
2021/08/07 07:05:42;;;;;;;3.72;3.42;;;;;;;;;;5056631;28;20453;-79
2021/08/07 07:08:08;;;;;;;3.63;3.00;;;;;;;;;;5056346;28;20098;-80
2021/08/07 07:10:34;;;;;;;3.05;2.85;;;;;;;;;;5056793;28;20063;-81
2021/08/07 07:13:00;;;;;;;7.78;3.85;;;;;;;;;;5056253;28;20037;-77
2021/08/07 07:15:26;;;;;;;3.50;3.20;;;;;;;;;;5056329;28;20039;-78
2021/08/07 07:17:52;;;;;;;5.65;3.65;;;;;;;;;;5056265;28;20035;-78
2021/08/07 07:20:20;;;;;;;6.10;3.17;;;;;;;;;;5056404;28;20055;-77
2021/08/07 07:22:46;;;;;;;8.90;3.28;;;;;;;;;;5056338;28;20028;-77
2021/08/07 07:25:13;;;;;;;2.85;2.60;;;;;;;;;;5056485;28;20021;-78
2021/08/07 07:27:39;;;;;;;8.98;3.00;;;;;;;;;;5055864;28;20352;-78
2021/08/07 07:30:06;;;;;;;5.50;2.85;;;;;;;;;;5056085;28;20032;-77
2021/08/07 07:32:32;;;;;;;5.82;3.72;;;;;;;;;;5055686;28;20101;-77
2021/08/07 07:34:58;;;;;;;3.53;3.20;;;;;;;;;;5056639;28;20047;-78
2021/08/07 07:37:25;;;;;;;4.45;4.05;;;;;;;;;;5055871;28;20025;-77
2021/08/07 07:39:51;;;;;;;10.57;8.82;;;;;;;;;;5056206;28;20413;-78
2021/08/07 07:42:17;;;;;;;10.52;3.42;;;;;;;;;;5056260;28;20029;-78
2021/08/07 07:44:43;;;;;;;4.15;3.85;;;;;;;;;;5056212;28;20029;-78
2021/08/07 07:47:09;;;;;;;5.25;3.65;;;;;;;;;;5056096;28;20417;-78
2021/08/07 07:49:36;;;;;;;4.10;3.28;;;;;;;;;;5056146;28;20021;-79
2021/08/07 07:52:03;;;;;;;3.65;3.17;;;;;;;;;;5071269;28;20020;-79
2021/08/07 07:54:29;;;;;;;3.17;2.85;;;;;;;;;;5074265;28;20072;-78
2021/08/07 07:56:55;;;;;;;3.72;3.15;;;;;;;;;;5066135;28;20086;-79
2021/08/07 07:59:21;;;;;;;7.15;3.20;;;;;;;;;;5070934;28;20030;-79
2021/08/07 08:01:47;;;;;;;9.35;3.42;;;;;;;;;;5069136;28;20025;-78
2021/08/07 08:04:14;;;;;;;8.15;3.80;;;;;;;;;;5070802;28;20024;-79
2021/08/07 08:06:40;;;;;;;3.55;2.60;;;;;;;;;;5060169;28;20524;-79
2021/08/07 08:09:06;;;;;;;2.78;2.38;;;;;;;;;;5066806;28;20088;-79
2021/08/07 08:11:32;;;;;;;2.95;2.75;;;;;;;;;;5062794;28;20494;-79
2021/08/07 08:14:00;;;;;;;7.50;3.45;;;;;;;;;;5066556;28;20075;-79
2021/08/07 08:16:26;;;;;;;8.93;2.80;;;;;;;;;;5068880;28;20017;-80
2021/08/07 08:18:52;;;;;;;4.53;2.90;;;;;;;;;;5069246;28;20035;-79
2021/08/07 08:21:19;;;;;;;5.60;2.97;;;;;;;;;;5059486;28;20078;-79
2021/08/07 08:23:45;;;;;;;3.67;2.85;;;;;;;;;;5069133;28;20028;-79
2021/08/07 08:26:11;;;;;;;3.53;2.50;;;;;;;;;;5068973;28;20035;-79
2021/08/07 08:28:37;;;;;;;3.38;2.33;;;;;;;;;;5067699;28;20037;-79
2021/08/07 08:31:03;;;;;;;4.57;3.03;;;;;;;;;;5065484;28;20482;-80
2021/08/07 08:33:30;;;;;;;3.05;2.75;;;;;;;;;;5069052;28;20103;-79
2021/08/07 08:35:56;;;;;;;7.93;2.42;;;;;;;;;;5063176;28;20020;-80
2021/08/07 08:38:22;;;;;;;5.07;2.20;;;;;;;;;;5069241;28;20055;-76
2021/08/07 08:40:48;;;;;;;2.13;1.92;;;;;;;;;;5068331;28;20050;-77
2021/08/07 08:43:14;;;;;;;4.45;2.50;;;;;;;;;;5063456;28;20049;-76
2021/08/07 08:45:40;;;;;;;5.80;2.88;;;;;;;;;;5069778;28;20028;-76
2021/08/07 08:48:07;;;;;;;4.45;3.03;;;;;;;;;;5068326;28;20036;-77
2021/08/07 08:50:33;;;;;;;7.32;2.80;;;;;;;;;;5068028;28;20021;-79
2021/08/07 08:52:59;;;;;;;4.88;2.28;;;;;;;;;;5066362;28;20031;-79
2021/08/07 08:55:25;;;;;;;4.38;2.47;;;;;;;;;;5068619;28;20435;-79
2021/08/07 08:57:51;;;;;;;2.20;2.00;;;;;;;;;;5072944;28;20112;-79
2021/08/07 09:00:18;;;;;;;2.70;2.50;;;;;;;;;;5072407;28;20024;-80
2021/08/07 09:02:44;;;;;;;4.05;2.47;;;;;;;;;;5074469;28;20024;-77
2021/08/07 09:05:10;;;;;;;4.53;2.17;;;;;;;;;;5073120;28;20311;-80
2021/08/07 09:07:36;;;;;;;2.78;2.15;;;;;;;;;;5073854;28;20032;-79
2021/08/07 09:10:02;;;;;;;2.78;2.15;;;;;;;;;;5071746;28;20545;-80
2021/08/07 09:12:45;;;;;;;2.67;2.30;;;;;;;;;;5073392;28;20116;-79
2021/08/07 09:15:27;;;;;;;2.67;2.47;;;;;;;;;;5074837;28;20031;-79
2021/08/07 09:18:13;;;;;;;3.47;2.38;;;;;;;;;;5074555;28;20024;-79
2021/08/07 09:20:39;;;;;;;3.63;2.63;;;;;;;;;;5059442;28;20029;-79
2021/08/07 09:23:06;;;;;;;4.88;2.97;;;;;;;;;;5073954;28;20031;-80
2021/08/07 09:25:37;;;;;;;2.83;2.63;;;;;;;;;;5073730;28;20066;-78
2021/08/07 09:28:03;;;;;;;8.52;2.50;;;;;;;;;;5073930;28;20385;-79
2021/08/07 09:30:32;;;;;;;4.45;2.45;;;;;;;;;;5074347;28;20029;-79
2021/08/07 09:32:59;;;;;;;4.32;2.42;;;;;;;;;;5073899;28;20067;-79
2021/08/07 09:35:26;;;;;;;2.55;2.28;;;;;;;;;;5073880;28;20028;-79
2021/08/07 09:38:12;;;;;;;3.63;2.38;;;;;;;;;;5073759;28;20051;-80
2021/08/07 09:40:47;;;;;;;3.85;1.98;;;;;;;;;;5059667;28;20021;-79
2021/08/07 09:43:14;;;;;;;4.30;2.33;;;;;;;;;;5073979;28;20030;-80
2021/08/07 09:45:40;;;;;;;3.42;2.15;;;;;;;;;;5073680;28;20466;-80
2021/08/07 09:48:07;;;;;;;4.28;2.10;;;;;;;;;;5073644;28;20032;-79
2021/08/07 09:50:33;;;;;;;2.83;2.00;;;;;;;;;;5073294;28;20029;-80
2021/08/07 09:53:00;;;;;;;3.20;2.25;;;;;;;;;;5074099;28;20029;-79
2021/08/07 09:55:26;;;;;;;4.90;2.60;;;;;;;;;;5074467;28;20024;-79
2021/08/07 09:58:08;;;;;;;3.72;2.50;;;;;;;;;;5073502;28;20032;-79
2021/08/07 10:00:37;;;;;;;3.13;2.42;;;;;;;;;;5074274;28;20028;-77
2021/08/07 10:03:19;;;;;;;4.60;2.13;;;;;;;;;;5074081;28;20023;-76
2021/08/07 10:05:46;;;;;;;6.60;2.05;;;;;;;;;;5074161;28;20090;-77
2021/08/07 10:08:12;;;;;;;3.28;2.42;;;;;;;;;;5076556;28;20475;-77
2021/08/07 10:10:38;;;;;;;4.40;2.70;;;;;;;;;;5077794;28;20359;-76
2021/08/07 10:13:05;;;;;;;4.07;2.78;;;;;;;;;;5078270;28;20096;-76
2021/08/07 10:15:31;;;;;;;7.72;2.83;;;;;;;;;;5077912;28;20078;-76
2021/08/07 10:17:57;;;;;;;2.42;2.15;;;;;;;;;;5077887;28;20021;-76
2021/08/07 10:20:23;;;;;;;2.92;2.08;;;;;;;;;;5077392;28;20031;-76
2021/08/07 10:22:50;;;;;;;3.55;2.67;;;;;;;;;;5077818;28;20064;-76
2021/08/07 10:25:16;;;;;;;4.57;2.55;;;;;;;;;;5077567;28;20037;-76
2021/08/07 10:27:42;;;;;;;4.95;2.28;;;;;;;;;;5077502;28;20028;-77
2021/08/07 10:30:11;;;;;;;3.38;2.72;;;;;;;;;;5077658;28;20111;-77
2021/08/07 10:32:39;;;;;;;3.28;2.58;;;;;;;;;;5077709;28;20119;-77
2021/08/07 10:35:06;;;;;;;3.88;2.63;;;;;;;;;;5077902;28;20025;-77
2021/08/07 10:37:32;;;;;;;3.60;2.75;;;;;;;;;;5077697;28;20028;-77
2021/08/07 10:39:58;;;;;;;3.90;2.25;;;;;;;;;;5077555;28;20033;-77
2021/08/07 10:42:27;;;;;;;3.80;2.47;;;;;;;;;;5077022;28;20023;-77
2021/08/07 10:44:53;;;;;;;3.58;2.45;;;;;;;;;;5076288;28;20112;-77
2021/08/07 10:47:35;;;;;;;5.30;2.45;;;;;;;;;;5076899;28;20032;-77
2021/08/07 10:50:01;;;;;;;4.80;2.30;;;;;;;;;;5077338;28;20405;-77
2021/08/07 10:52:35;;;;;;;3.75;3.03;;;;;;;;;;5076954;28;20081;-76
2021/08/07 10:55:01;;;;;;;4.15;2.30;;;;;;;;;;5076723;28;20056;-78
2021/08/07 10:57:35;;;;;;;2.90;2.50;;;;;;;;;;5075994;28;20032;-75
2021/08/07 11:00:21;;;;;;;3.25;2.30;;;;;;;;;;5076404;28;20028;-74
2021/08/07 11:02:47;;;;;;;3.58;2.50;;;;;;;;;;5076680;28;20078;-80
2021/08/07 11:05:13;;;;;;;2.92;2.25;;;;;;;;;;5076844;28;20048;-78
2021/08/07 11:07:39;;;;;;;3.83;2.17;;;;;;;;;;5076164;28;20106;-78
2021/08/07 11:10:07;;;;;;;3.63;2.72;;;;;;;;;;5075943;28;20024;-77
2021/08/07 11:12:33;;;;;;;8.13;2.40;;;;;;;;;;5076452;28;20031;-77
2021/08/07 11:15:00;;;;;;;3.40;2.55;;;;;;;;;;5076350;28;20499;-77
2021/08/07 11:17:27;;;;;;;4.60;2.30;;;;;;;;;;5076377;28;20036;-77
2021/08/07 11:19:56;;;;;;;7.32;2.13;;;;;;;;;;5075526;28;20020;-77
2021/08/07 11:22:42;;;;;;;5.28;2.38;;;;;;;;;;5076121;28;20024;-77
2021/08/07 11:25:14;;;;;;;2.50;2.15;;;;;;;;;;5062246;28;20075;-77
2021/08/07 11:28:00;;;;;;;9.07;3.45;;;;;;;;;;5077003;28;20063;-77
2021/08/07 11:30:27;;;;;;;2.30;2.10;;;;;;;;;;5061814;28;20140;-77
2021/08/07 11:33:13;;;;;;;2.22;2.00;;;;;;;;;;5076463;28;20071;-77
2021/08/07 11:35:59;;;;;;;4.75;2.08;;;;;;;;;;5062405;28;20031;-77
2021/08/07 11:38:25;;;;;;;7.38;2.38;;;;;;;;;;5062043;28;20459;-76
2021/08/07 11:40:55;;;;;;;3.50;2.35;;;;;;;;;;5076635;28;20060;-77
2021/08/07 11:43:22;;;;;;;2.83;2.47;;;;;;;;;;5076474;28;20491;-77
2021/08/07 11:46:02;;;;;;;5.75;2.40;;;;;;;;;;5076371;28;20218;-78
2021/08/07 11:48:30;;;;;;;4.15;2.22;;;;;;;;;;5076503;28;20047;-78
2021/08/07 11:50:58;;;;;;;2.55;2.33;;;;;;;;;;5075112;28;20024;-77
2021/08/07 11:53:24;;;;;;;6.72;2.30;;;;;;;;;;5074874;28;20485;-78
2021/08/07 11:56:06;;;;;;;2.70;2.50;;;;;;;;;;5076106;28;20066;-78
2021/08/07 11:58:32;;;;;;;5.00;2.13;;;;;;;;;;5076054;28;20031;-77
2021/08/07 12:00:59;;;;;;;5.70;2.45;;;;;;;;;;5076219;28;20429;-78
2021/08/07 12:03:25;;;;;;;10.27;2.40;;;;;;;;;;5075463;28;20172;-76
2021/08/07 12:05:52;;;;;;;3.08;2.40;;;;;;;;;;5076125;28;20024;-77
2021/08/07 12:08:18;;;;;;;2.80;2.22;;;;;;;;;;5076032;28;20029;-77
2021/08/07 12:10:47;;;;;;;2.55;2.20;;;;;;;;;;5076050;28;20020;-76
2021/08/07 12:13:17;;;;;;;2.58;2.13;;;;;;;;;;5076365;28;20075;-77
2021/08/07 12:16:03;;;;;;;3.00;2.10;;;;;;;;;;5076068;28;20033;-77
2021/08/07 12:18:45;;;;;;;10.90;3.55;;;;;;;;;;5061303;28;20029;-77
2021/08/07 12:21:15;;;;;;;4.88;2.53;;;;;;;;;;5075663;28;20104;-76
2021/08/07 12:23:43;;;;;;;2.55;2.10;;;;;;;;;;5075655;28;20028;-77
2021/08/07 12:26:09;;;;;;;3.55;2.13;;;;;;;;;;5075552;28;20029;-77
2021/08/07 12:28:35;;;;;;;2.75;2.03;;;;;;;;;;5075502;28;20094;-77
2021/08/07 12:31:02;;;;;;;2.75;2.30;;;;;;;;;;5074474;28;20056;-76
2021/08/07 12:33:28;;;;;;;10.57;2.35;;;;;;;;;;5075389;28;20071;-77
2021/08/07 12:35:54;;;;;;;3.10;2.40;;;;;;;;;;5076132;28;20056;-79
2021/08/07 12:38:22;;;;;;;4.10;2.40;;;;;;;;;;5075774;28;20394;-77
2021/08/07 12:40:49;;;;;;;14.07;3.17;;;;;;;;;;5075102;28;20028;-76
2021/08/07 12:43:15;;;;;;;3.20;2.65;;;;;;;;;;5075122;28;20070;-76
2021/08/07 12:45:41;;;;;;;7.47;2.70;;;;;;;;;;5075221;28;20024;-77
2021/08/07 12:48:07;;;;;;;2.67;2.47;;;;;;;;;;5075037;28;20028;-77
2021/08/07 12:50:34;;;;;;;4.93;2.70;;;;;;;;;;5075240;28;20036;-77
2021/08/07 12:53:00;;;;;;;3.10;2.53;;;;;;;;;;5074672;28;20066;-77
2021/08/07 12:55:28;;;;;;;3.03;2.28;;;;;;;;;;5075707;28;20435;-76
2021/08/07 12:58:10;;;;;;;3.03;2.53;;;;;;;;;;5074706;28;20464;-77
2021/08/07 13:00:36;;;;;;;2.60;2.40;;;;;;;;;;5074834;28;20032;-78
2021/08/07 13:03:04;;;;;;;7.68;2.90;;;;;;;;;;5074605;28;20025;-77
2021/08/07 13:05:32;;;;;;;3.45;2.47;;;;;;;;;;5074637;28;20028;-77
2021/08/07 13:07:58;;;;;;;3.55;3.13;;;;;;;;;;5075019;28;20035;-77
2021/08/07 13:10:28;;;;;;;4.30;2.47;;;;;;;;;;5074741;28;20033;-77
2021/08/07 13:12:54;;;;;;;3.60;2.80;;;;;;;;;;5074953;28;20033;-77
2021/08/07 13:15:20;;;;;;;2.65;2.42;;;;;;;;;;5074439;28;20035;-77
2021/08/07 13:17:48;;;;;;;3.38;2.55;;;;;;;;;;5074663;28;20115;-78
2021/08/07 13:20:15;;;;;;;2.78;2.58;;;;;;;;;;5074682;28;20020;-78
2021/08/07 13:22:42;;;;;;;2.60;2.17;;;;;;;;;;5075103;28;20060;-77
2021/08/07 13:25:09;;;;;;;3.85;2.50;;;;;;;;;;5074537;28;20017;-77
2021/08/07 13:27:38;;;;;;;4.95;3.00;;;;;;;;;;5074294;28;20024;-77
2021/08/07 13:30:05;;;;;;;3.97;2.35;;;;;;;;;;5074508;28;20032;-78
2021/08/07 13:32:31;;;;;;;3.45;2.67;;;;;;;;;;5074612;28;20052;-76
2021/08/07 13:34:58;;;;;;;4.00;2.40;;;;;;;;;;5074598;28;20056;-77
2021/08/07 13:37:24;;;;;;;3.17;2.55;;;;;;;;;;5074738;28;20032;-78
2021/08/07 13:39:50;;;;;;;3.15;2.47;;;;;;;;;;5073872;28;20374;-78
2021/08/07 13:42:20;;;;;;;4.97;2.80;;;;;;;;;;5073787;28;20045;-78
2021/08/07 13:44:46;;;;;;;2.40;2.20;;;;;;;;;;5074171;28;20024;-77
2021/08/07 13:47:12;;;;;;;2.33;2.10;;;;;;;;;;5074674;28;20032;-77
2021/08/07 13:49:38;;;;;;;4.47;2.42;;;;;;;;;;5074157;28;20064;-78
2021/08/07 13:52:04;;;;;;;3.92;2.53;;;;;;;;;;5074249;28;20155;-78
2021/08/07 13:54:30;;;;;;;2.47;2.28;;;;;;;;;;5073784;28;20055;-77
2021/08/07 13:56:57;;;;;;;3.78;2.58;;;;;;;;;;5073756;28;20059;-78
2021/08/07 13:59:23;;;;;;;6.20;2.70;;;;;;;;;;5074041;28;20107;-78
2021/08/07 14:01:49;;;;;;;2.40;2.20;;;;;;;;;;5074608;28;20035;-77
2021/08/07 14:04:15;;;;;;;3.10;2.58;;;;;;;;;;5073184;28;20087;-77
2021/08/07 14:06:41;;;;;;;2.42;2.05;;;;;;;;;;5073753;28;20478;-78
2021/08/07 14:09:07;;;;;;;2.75;2.50;;;;;;;;;;5073833;28;20071;-78
2021/08/07 14:11:33;;;;;;;2.78;2.45;;;;;;;;;;5073511;28;20021;-77
2021/08/07 14:13:59;;;;;;;2.83;2.53;;;;;;;;;;5073493;28;20078;-77
2021/08/07 14:16:25;;;;;;;2.60;2.40;;;;;;;;;;5074380;28;20031;-78
2021/08/07 14:18:51;;;;;;;2.47;2.22;;;;;;;;;;5073412;28;20028;-78
2021/08/07 14:21:17;;;;;;;2.70;2.40;;;;;;;;;;5073926;28;20031;-78
2021/08/07 14:23:43;;;;;;;4.75;2.30;;;;;;;;;;5072654;28;20029;-78
2021/08/07 14:26:09;;;;;;;3.20;2.60;;;;;;;;;;5073652;28;20351;-77
2021/08/07 14:28:36;;;;;;;2.95;2.65;;;;;;;;;;5073188;28;20024;-77
2021/08/07 14:31:02;;;;;;;5.05;2.95;;;;;;;;;;5073264;28;20029;-77
2021/08/07 14:33:28;;;;;;;3.08;2.63;;;;;;;;;;5073973;28;20106;-77
2021/08/07 14:35:54;;;;;;;5.47;2.80;;;;;;;;;;5073493;28;20396;-78
2021/08/07 14:38:20;;;;;;;3.38;2.67;;;;;;;;;;5073286;28;20126;-78
2021/08/07 14:40:46;;;;;;;3.22;2.45;;;;;;;;;;5073496;28;20031;-78